sensor_id;sensor_type;location;lat;lon;timestamp;pressure;altitude;pressure_sealevel;temperature;humidity
62011;BME280;47967;51.756;10.174;2023-05-19T04:02:54;100721.88;;;9.64;71.29
62011;BME280;47967;51.756;10.174;2023-05-19T04:06:57;100717.53;;;9.63;71.28
62011;BME280;47967;51.756;10.174;2023-05-19T04:11:00;100717.34;;;9.73;70.96
62011;BME280;47967;51.756;10.174;2023-05-19T04:15:03;100723.88;;;9.70;71.19
62011;BME280;47967;51.756;10.174;2023-05-19T04:19:08;100723.88;;;9.70;70.08
62011;BME280;47967;51.756;10.174;2023-05-19T04:23:11;100722.38;;;9.68;69.87
62011;BME280;47967;51.756;10.174;2023-05-19T04:27:13;100714.09;;;9.77;69.54
62011;BME280;47967;51.756;10.174;2023-05-19T04:31:16;100715.09;;;9.85;69.72
62011;BME280;47967;51.756;10.174;2023-05-19T04:35:22;100724.00;;;10.02;69.78
62011;BME280;47967;51.756;10.174;2023-05-19T04:39:25;100712.38;;;10.01;69.85
62011;BME280;47967;51.756;10.174;2023-05-19T04:43:28;100715.84;;;10.27;69.53
62011;BME280;47967;51.756;10.174;2023-05-19T04:47:31;100716.47;;;10.45;67.96
62011;BME280;47967;51.756;10.174;2023-05-19T04:51:39;100713.16;;;10.66;68.27
62011;BME280;47967;51.756;10.174;2023-05-19T04:55:43;100715.19;;;10.87;67.94
62011;BME280;47967;51.756;10.174;2023-05-19T04:59:47;100722.19;;;11.05;67.94
62011;BME280;47967;51.756;10.174;2023-05-19T05:03:50;100718.88;;;11.18;67.30
62011;BME280;47967;51.756;10.174;2023-05-19T05:07:57;100718.63;;;11.28;67.36
62011;BME280;47967;51.756;10.174;2023-05-19T05:12:03;100714.66;;;11.38;67.61
62011;BME280;47967;51.756;10.174;2023-05-19T05:16:10;100709.56;;;11.44;67.48
62011;BME280;47967;51.756;10.174;2023-05-19T05:20:14;100719.59;;;11.73;66.45
62011;BME280;47967;51.756;10.174;2023-05-19T05:24:19;100720.44;;;11.89;65.65
62011;BME280;47967;51.756;10.174;2023-05-19T05:28:27;100720.66;;;12.02;65.47
62011;BME280;47967;51.756;10.174;2023-05-19T05:32:30;100707.03;;;12.25;64.92
62011;BME280;47967;51.756;10.174;2023-05-19T05:36:35;100708.38;;;12.29;64.24
62011;BME280;47967;51.756;10.174;2023-05-19T05:40:39;100711.13;;;12.36;63.88
62011;BME280;47967;51.756;10.174;2023-05-19T05:44:42;100712.81;;;12.37;63.51
62011;BME280;47967;51.756;10.174;2023-05-19T05:48:45;100714.88;;;12.50;64.89
62011;BME280;47967;51.756;10.174;2023-05-19T05:52:48;100714.03;;;12.35;67.35
62011;BME280;47967;51.756;10.174;2023-05-19T05:56:55;100709.72;;;12.55;66.21
62011;BME280;47967;51.756;10.174;2023-05-19T06:00:58;100712.63;;;12.75;64.98
62011;BME280;47967;51.756;10.174;2023-05-19T06:05:07;100718.09;;;12.97;64.33
62011;BME280;47967;51.756;10.174;2023-05-19T06:09:12;100714.81;;;13.23;63.36
62011;BME280;47967;51.756;10.174;2023-05-19T06:13:17;100722.28;;;13.65;62.43
62011;BME280;47967;51.756;10.174;2023-05-19T06:17:24;100725.09;;;14.13;61.40
62011;BME280;47967;51.756;10.174;2023-05-19T06:21:27;100721.91;;;14.45;60.05
62011;BME280;47967;51.756;10.174;2023-05-19T06:25:29;100724.56;;;14.66;60.25
62011;BME280;47967;51.756;10.174;2023-05-19T06:29:34;100719.00;;;14.95;60.47
62011;BME280;47967;51.756;10.174;2023-05-19T06:33:40;100721.53;;;15.10;59.90
62011;BME280;47967;51.756;10.174;2023-05-19T06:37:43;100721.13;;;15.33;59.44
62011;BME280;47967;51.756;10.174;2023-05-19T06:41:45;100718.84;;;15.43;57.83
62011;BME280;47967;51.756;10.174;2023-05-19T06:46:09;100719.47;;;15.52;57.05
62011;BME280;47967;51.756;10.174;2023-05-19T06:50:13;100718.22;;;15.55;57.54
62011;BME280;47967;51.756;10.174;2023-05-19T06:54:17;100716.13;;;15.70;57.12
62011;BME280;47967;51.756;10.174;2023-05-19T06:58:19;100713.59;;;15.82;56.67
62011;BME280;47967;51.756;10.174;2023-05-19T07:02:23;100707.09;;;15.96;56.68
62011;BME280;47967;51.756;10.174;2023-05-19T07:06:26;100696.88;;;15.92;54.80
62011;BME280;47967;51.756;10.174;2023-05-19T07:10:50;100702.31;;;15.78;55.72
62011;BME280;47967;51.756;10.174;2023-05-19T07:15:18;100696.44;;;15.81;54.55
62011;BME280;47967;51.756;10.174;2023-05-19T07:19:23;100699.38;;;15.93;53.85
62011;BME280;47967;51.756;10.174;2023-05-19T07:23:27;100697.44;;;16.14;51.10
62011;BME280;47967;51.756;10.174;2023-05-19T07:27:29;100691.50;;;16.37;49.31
62011;BME280;47967;51.756;10.174;2023-05-19T07:31:32;100700.78;;;16.68;47.73
62011;BME280;47967;51.756;10.174;2023-05-19T07:35:36;100693.38;;;16.82;47.14
62011;BME280;47967;51.756;10.174;2023-05-19T07:39:39;100695.69;;;16.78;45.49
62011;BME280;47967;51.756;10.174;2023-05-19T07:43:41;100691.97;;;17.11;45.29
62011;BME280;47967;51.756;10.174;2023-05-19T07:47:44;100686.69;;;17.42;43.03
62011;BME280;47967;51.756;10.174;2023-05-19T07:51:48;100683.34;;;17.84;41.92
62011;BME280;47967;51.756;10.174;2023-05-19T07:55:51;100681.56;;;18.15;41.98
62011;BME280;47967;51.756;10.174;2023-05-19T07:59:53;100670.28;;;18.60;41.02
62011;BME280;47967;51.756;10.174;2023-05-19T08:03:56;100665.19;;;18.94;41.00
62011;BME280;47967;51.756;10.174;2023-05-19T08:08:00;100667.03;;;19.12;41.58
62011;BME280;47967;51.756;10.174;2023-05-19T08:12:03;100663.03;;;19.39;42.20
62011;BME280;47967;51.756;10.174;2023-05-19T08:16:06;100675.88;;;19.74;39.50
62011;BME280;47967;51.756;10.174;2023-05-19T08:20:09;100671.59;;;20.13;38.52
62011;BME280;47967;51.756;10.174;2023-05-19T08:24:14;100661.22;;;20.44;38.34
62011;BME280;47967;51.756;10.174;2023-05-19T08:28:16;100661.03;;;20.34;39.04
62011;BME280;47967;51.756;10.174;2023-05-19T08:32:19;100664.31;;;20.48;38.14
62011;BME280;47967;51.756;10.174;2023-05-19T08:36:22;100656.91;;;20.20;36.27
62011;BME280;47967;51.756;10.174;2023-05-19T08:40:26;100653.59;;;20.46;36.64
62011;BME280;47967;51.756;10.174;2023-05-19T08:44:32;100654.53;;;20.11;36.26
62011;BME280;47967;51.756;10.174;2023-05-19T08:48:36;100649.09;;;19.99;36.57
62011;BME280;47967;51.756;10.174;2023-05-19T08:52:50;100646.97;;;20.42;37.44
62011;BME280;47967;51.756;10.174;2023-05-19T08:56:55;100639.19;;;20.51;36.71
62011;BME280;47967;51.756;10.174;2023-05-19T09:00:58;100633.38;;;20.36;37.10
62011;BME280;47967;51.756;10.174;2023-05-19T09:05:03;100635.53;;;20.62;36.85
62011;BME280;47967;51.756;10.174;2023-05-19T09:09:06;100633.06;;;21.24;36.47
62011;BME280;47967;51.756;10.174;2023-05-19T09:13:10;100634.28;;;21.50;34.88
62011;BME280;47967;51.756;10.174;2023-05-19T09:17:13;100631.75;;;21.09;35.19
62011;BME280;47967;51.756;10.174;2023-05-19T09:21:16;100618.66;;;21.51;34.97
62011;BME280;47967;51.756;10.174;2023-05-19T09:25:19;100620.38;;;21.74;34.17
62011;BME280;47967;51.756;10.174;2023-05-19T09:29:24;100619.28;;;21.75;35.47
62011;BME280;47967;51.756;10.174;2023-05-19T09:33:28;100620.63;;;21.95;33.44
62011;BME280;47967;51.756;10.174;2023-05-19T09:37:31;100623.22;;;21.62;34.18
62011;BME280;47967;51.756;10.174;2023-05-19T09:41:34;100626.78;;;20.77;35.05
62011;BME280;47967;51.756;10.174;2023-05-19T09:45:37;100618.59;;;20.66;36.34
62011;BME280;47967;51.756;10.174;2023-05-19T09:49:45;100627.75;;;20.02;37.14
62011;BME280;47967;51.756;10.174;2023-05-19T09:53:48;100621.81;;;20.74;35.60
62011;BME280;47967;51.756;10.174;2023-05-19T09:57:50;100615.06;;;20.82;37.53
62011;BME280;47967;51.756;10.174;2023-05-19T10:02:08;100621.91;;;20.68;38.29
62011;BME280;47967;51.756;10.174;2023-05-19T10:06:22;100609.09;;;20.27;37.71
62011;BME280;47967;51.756;10.174;2023-05-19T10:10:26;100619.41;;;20.20;37.82
62011;BME280;47967;51.756;10.174;2023-05-19T10:14:30;100610.00;;;21.08;36.71
62011;BME280;47967;51.756;10.174;2023-05-19T10:18:34;100601.88;;;21.86;35.82
62011;BME280;47967;51.756;10.174;2023-05-19T10:22:51;100607.16;;;21.71;36.11
62011;BME280;47967;51.756;10.174;2023-05-19T10:26:56;100605.38;;;21.08;35.54
62011;BME280;47967;51.756;10.174;2023-05-19T10:31:00;100597.56;;;20.71;34.71
62011;BME280;47967;51.756;10.174;2023-05-19T10:35:48;100588.66;;;22.33;33.62
62011;BME280;47967;51.756;10.174;2023-05-19T10:39:56;100588.88;;;22.81;32.66
62011;BME280;47967;51.756;10.174;2023-05-19T10:44:05;100592.53;;;21.31;34.91
62011;BME280;47967;51.756;10.174;2023-05-19T10:48:20;100594.31;;;19.99;36.33
62011;BME280;47967;51.756;10.174;2023-05-19T10:52:28;100593.88;;;20.77;35.98
62011;BME280;47967;51.756;10.174;2023-05-19T10:56:33;100584.25;;;20.92;35.53
62011;BME280;47967;51.756;10.174;2023-05-19T11:00:38;100587.09;;;20.97;36.01
62011;BME280;47967;51.756;10.174;2023-05-19T11:04:45;100583.50;;;20.79;35.28
62011;BME280;47967;51.756;10.174;2023-05-19T11:08:55;100582.44;;;19.94;37.36
62011;BME280;47967;51.756;10.174;2023-05-19T11:12:58;100583.88;;;20.25;36.61
62011;BME280;47967;51.756;10.174;2023-05-19T11:17:01;100581.78;;;20.61;36.59
62011;BME280;47967;51.756;10.174;2023-05-19T11:21:05;100581.22;;;20.30;37.29
62011;BME280;47967;51.756;10.174;2023-05-19T11:25:10;100583.63;;;19.62;37.75
62011;BME280;47967;51.756;10.174;2023-05-19T11:29:13;100577.38;;;20.43;37.41
62011;BME280;47967;51.756;10.174;2023-05-19T11:33:16;100559.59;;;20.46;36.44
62011;BME280;47967;51.756;10.174;2023-05-19T11:37:20;100562.84;;;20.60;37.38
62011;BME280;47967;51.756;10.174;2023-05-19T11:41:24;100560.97;;;20.03;37.82
62011;BME280;47967;51.756;10.174;2023-05-19T11:45:30;100571.94;;;20.31;37.76
62011;BME280;47967;51.756;10.174;2023-05-19T11:49:33;100567.88;;;20.80;38.42
62011;BME280;47967;51.756;10.174;2023-05-19T11:53:36;100570.00;;;21.46;36.46
62011;BME280;47967;51.756;10.174;2023-05-19T11:57:40;100576.59;;;20.77;35.85
62011;BME280;47967;51.756;10.174;2023-05-19T12:02:16;100571.69;;;20.33;37.76
62011;BME280;47967;51.756;10.174;2023-05-19T12:06:19;100560.88;;;20.26;37.21
62011;BME280;47967;51.756;10.174;2023-05-19T12:10:22;100562.25;;;20.12;37.57
62011;BME280;47967;51.756;10.174;2023-05-19T12:14:28;100555.19;;;20.45;37.96
62011;BME280;47967;51.756;10.174;2023-05-19T12:18:35;100549.41;;;20.29;37.24
62011;BME280;47967;51.756;10.174;2023-05-19T12:22:38;100551.56;;;20.27;36.57
62011;BME280;47967;51.756;10.174;2023-05-19T12:26:41;100548.44;;;20.82;36.43
62011;BME280;47967;51.756;10.174;2023-05-19T12:30:48;100545.25;;;21.63;36.16
62011;BME280;47967;51.756;10.174;2023-05-19T12:34:54;100550.53;;;21.92;34.94
62011;BME280;47967;51.756;10.174;2023-05-19T12:38:57;100547.16;;;21.85;35.57
62011;BME280;47967;51.756;10.174;2023-05-19T12:43:00;100551.53;;;20.56;36.82
62011;BME280;47967;51.756;10.174;2023-05-19T12:47:05;100550.06;;;20.66;37.49
62011;BME280;47967;51.756;10.174;2023-05-19T12:51:08;100548.47;;;21.21;36.26
62011;BME280;47967;51.756;10.174;2023-05-19T12:55:11;100535.47;;;21.33;37.08
62011;BME280;47967;51.756;10.174;2023-05-19T12:59:20;100548.81;;;21.86;35.70
62011;BME280;47967;51.756;10.174;2023-05-19T13:03:40;100539.94;;;21.79;35.42
62011;BME280;47967;51.756;10.174;2023-05-19T13:07:52;100541.22;;;21.71;34.89
62011;BME280;47967;51.756;10.174;2023-05-19T13:11:55;100539.13;;;21.78;35.43
62011;BME280;47967;51.756;10.174;2023-05-19T13:15:59;100530.50;;;21.69;35.68
62011;BME280;47967;51.756;10.174;2023-05-19T13:20:04;100550.09;;;20.83;36.27
62011;BME280;47967;51.756;10.174;2023-05-19T13:24:06;100536.91;;;20.51;37.08
62011;BME280;47967;51.756;10.174;2023-05-19T13:28:09;100539.19;;;20.88;37.76
62011;BME280;47967;51.756;10.174;2023-05-19T13:32:12;100540.41;;;21.70;37.52
62011;BME280;47967;51.756;10.174;2023-05-19T13:36:16;100533.22;;;21.47;36.90
62011;BME280;47967;51.756;10.174;2023-05-19T13:40:18;100535.88;;;21.42;36.84
62011;BME280;47967;51.756;10.174;2023-05-19T13:44:21;100526.63;;;21.48;37.20
62011;BME280;47967;51.756;10.174;2023-05-19T13:48:26;100537.22;;;21.39;37.46
62011;BME280;47967;51.756;10.174;2023-05-19T13:52:39;100527.66;;;21.25;37.64
62011;BME280;47967;51.756;10.174;2023-05-19T13:56:41;100534.28;;;21.07;38.27
62011;BME280;47967;51.756;10.174;2023-05-19T14:00:46;100528.53;;;21.48;37.53
62011;BME280;47967;51.756;10.174;2023-05-19T14:04:49;100531.97;;;20.99;37.10
62011;BME280;47967;51.756;10.174;2023-05-19T14:08:53;100527.63;;;20.86;38.04
62011;BME280;47967;51.756;10.174;2023-05-19T14:12:56;100523.75;;;20.36;38.20
62011;BME280;47967;51.756;10.174;2023-05-19T14:17:03;100519.00;;;20.31;37.69
62011;BME280;47967;51.756;10.174;2023-05-19T14:21:06;100526.19;;;20.03;38.18
62011;BME280;47967;51.756;10.174;2023-05-19T14:25:10;100519.69;;;20.38;37.99
62011;BME280;47967;51.756;10.174;2023-05-19T14:29:12;100527.09;;;20.38;38.44
62011;BME280;47967;51.756;10.174;2023-05-19T14:33:15;100528.19;;;20.71;38.62
62011;BME280;47967;51.756;10.174;2023-05-19T14:37:19;100524.69;;;21.88;37.04
62011;BME280;47967;51.756;10.174;2023-05-19T14:41:23;100524.38;;;22.12;35.38
62011;BME280;47967;51.756;10.174;2023-05-19T14:45:26;100521.38;;;21.64;35.87
62011;BME280;47967;51.756;10.174;2023-05-19T14:49:29;100510.69;;;21.67;36.30
62011;BME280;47967;51.756;10.174;2023-05-19T14:53:32;100516.69;;;22.68;34.37
62011;BME280;47967;51.756;10.174;2023-05-19T14:57:35;100506.94;;;22.88;33.81
62011;BME280;47967;51.756;10.174;2023-05-19T15:01:38;100510.00;;;21.77;34.40
62011;BME280;47967;51.756;10.174;2023-05-19T15:05:41;100499.59;;;21.79;34.63
62011;BME280;47967;51.756;10.174;2023-05-19T15:09:43;100509.13;;;22.26;35.05
62011;BME280;47967;51.756;10.174;2023-05-19T15:13:47;100510.91;;;22.37;34.01
62011;BME280;47967;51.756;10.174;2023-05-19T15:17:50;100506.66;;;21.75;34.42
62011;BME280;47967;51.756;10.174;2023-05-19T15:21:53;100496.19;;;21.72;34.97
62011;BME280;47967;51.756;10.174;2023-05-19T15:25:55;100496.66;;;22.73;33.86
62011;BME280;47967;51.756;10.174;2023-05-19T15:29:59;100506.28;;;22.16;34.71
62011;BME280;47967;51.756;10.174;2023-05-19T15:34:02;100494.00;;;21.96;33.94
62011;BME280;47967;51.756;10.174;2023-05-19T15:38:05;100495.94;;;22.23;34.34
62011;BME280;47967;51.756;10.174;2023-05-19T15:42:07;100491.75;;;21.66;34.68
62011;BME280;47967;51.756;10.174;2023-05-19T15:46:11;100498.47;;;21.36;35.72
62011;BME280;47967;51.756;10.174;2023-05-19T15:50:16;100493.97;;;21.07;35.54
62011;BME280;47967;51.756;10.174;2023-05-19T15:54:19;100489.97;;;20.64;36.21
62011;BME280;47967;51.756;10.174;2023-05-19T15:58:21;100489.81;;;20.71;36.90
62011;BME280;47967;51.756;10.174;2023-05-19T16:02:25;100494.16;;;21.01;36.90
62011;BME280;47967;51.756;10.174;2023-05-19T16:06:28;100489.56;;;21.28;36.29
62011;BME280;47967;51.756;10.174;2023-05-19T16:10:31;100488.31;;;21.14;35.28
62011;BME280;47967;51.756;10.174;2023-05-19T16:14:34;100480.34;;;20.95;35.76
62011;BME280;47967;51.756;10.174;2023-05-19T16:18:39;100480.44;;;21.01;35.20
62011;BME280;47967;51.756;10.174;2023-05-19T16:22:43;100476.44;;;20.91;35.03
62011;BME280;47967;51.756;10.174;2023-05-19T16:26:45;100478.69;;;20.77;35.65
62011;BME280;47967;51.756;10.174;2023-05-19T16:30:48;100471.69;;;20.36;35.97
62011;BME280;47967;51.756;10.174;2023-05-19T16:34:52;100468.38;;;20.51;36.10
62011;BME280;47967;51.756;10.174;2023-05-19T16:38:55;100471.00;;;20.28;36.21
62011;BME280;47967;51.756;10.174;2023-05-19T16:42:58;100470.69;;;20.59;35.85
62011;BME280;47967;51.756;10.174;2023-05-19T16:47:00;100464.66;;;20.40;36.23
62011;BME280;47967;51.756;10.174;2023-05-19T16:51:04;100466.94;;;20.31;36.45
62011;BME280;47967;51.756;10.174;2023-05-19T16:55:07;100460.47;;;20.37;36.39
62011;BME280;47967;51.756;10.174;2023-05-19T16:59:11;100467.53;;;20.33;36.58
62011;BME280;47967;51.756;10.174;2023-05-19T17:03:14;100460.38;;;20.15;36.67
62011;BME280;47967;51.756;10.174;2023-05-19T17:07:18;100466.84;;;20.09;37.04
62011;BME280;47967;51.756;10.174;2023-05-19T17:11:20;100457.84;;;19.96;37.14
62011;BME280;47967;51.756;10.174;2023-05-19T17:15:23;100463.53;;;20.07;37.36
62011;BME280;47967;51.756;10.174;2023-05-19T17:19:25;100462.19;;;19.80;37.34
62011;BME280;47967;51.756;10.174;2023-05-19T17:23:29;100459.84;;;19.60;38.03
62011;BME280;47967;51.756;10.174;2023-05-19T17:27:32;100466.00;;;19.79;38.04
62011;BME280;47967;51.756;10.174;2023-05-19T17:31:35;100466.44;;;19.59;38.21
62011;BME280;47967;51.756;10.174;2023-05-19T17:35:37;100471.03;;;19.30;38.27
62011;BME280;47967;51.756;10.174;2023-05-19T17:39:44;100463.56;;;19.13;38.46
62011;BME280;47967;51.756;10.174;2023-05-19T17:43:46;100471.41;;;18.98;38.55
62011;BME280;47967;51.756;10.174;2023-05-19T17:47:49;100464.97;;;19.16;38.67
62011;BME280;47967;51.756;10.174;2023-05-19T17:51:52;100478.44;;;18.94;38.91
62011;BME280;47967;51.756;10.174;2023-05-19T17:55:58;100477.94;;;18.85;39.17
62011;BME280;47967;51.756;10.174;2023-05-19T18:00:01;100478.63;;;18.68;39.25
62011;BME280;47967;51.756;10.174;2023-05-19T18:04:05;100472.69;;;18.83;39.58
62011;BME280;47967;51.756;10.174;2023-05-19T18:08:08;100472.34;;;18.80;39.76
62011;BME280;47967;51.756;10.174;2023-05-19T18:12:13;100475.88;;;18.68;39.91
62011;BME280;47967;51.756;10.174;2023-05-19T18:16:15;100467.91;;;18.55;40.74
62011;BME280;47967;51.756;10.174;2023-05-19T18:20:18;100464.59;;;18.53;40.78
62011;BME280;47967;51.756;10.174;2023-05-19T18:24:21;100474.28;;;18.37;41.29
62011;BME280;47967;51.756;10.174;2023-05-19T18:28:25;100481.06;;;18.34;41.38
62011;BME280;47967;51.756;10.174;2023-05-19T18:32:27;100479.16;;;18.23;41.62
62011;BME280;47967;51.756;10.174;2023-05-19T18:36:30;100476.53;;;18.16;41.78
62011;BME280;47967;51.756;10.174;2023-05-19T18:40:32;100479.53;;;17.96;41.90
62011;BME280;47967;51.756;10.174;2023-05-19T18:44:37;100483.47;;;17.82;42.31
62011;BME280;47967;51.756;10.174;2023-05-19T18:48:39;100486.13;;;17.70;42.77
62011;BME280;47967;51.756;10.174;2023-05-19T18:52:42;100489.19;;;17.43;43.50
62011;BME280;47967;51.756;10.174;2023-05-19T18:56:45;100486.31;;;17.19;44.61
62011;BME280;47967;51.756;10.174;2023-05-19T19:00:49;100488.19;;;17.00;45.64
62011;BME280;47967;51.756;10.174;2023-05-19T19:04:51;100490.06;;;16.74;47.20
62011;BME280;47967;51.756;10.174;2023-05-19T19:08:54;100499.34;;;16.41;49.08
62011;BME280;47967;51.756;10.174;2023-05-19T19:12:56;100496.47;;;16.04;49.75
62011;BME280;47967;51.756;10.174;2023-05-19T19:17:00;100498.88;;;15.74;51.89
62011;BME280;47967;51.756;10.174;2023-05-19T19:21:03;100505.03;;;15.49;51.32
62011;BME280;47967;51.756;10.174;2023-05-19T19:25:07;100507.03;;;15.15;52.05
62011;BME280;47967;51.756;10.174;2023-05-19T19:29:10;100513.28;;;15.09;52.57
62011;BME280;47967;51.756;10.174;2023-05-19T19:33:14;100523.97;;;14.97;52.72
62011;BME280;47967;51.756;10.174;2023-05-19T19:37:16;100525.88;;;14.76;53.38
62011;BME280;47967;51.756;10.174;2023-05-19T19:41:19;100523.31;;;14.54;54.28
62011;BME280;47967;51.756;10.174;2023-05-19T19:45:22;100523.72;;;14.45;54.97
62011;BME280;47967;51.756;10.174;2023-05-19T19:49:26;100523.72;;;14.24;55.67
62011;BME280;47967;51.756;10.174;2023-05-19T19:53:28;100528.03;;;14.05;56.38
62011;BME280;47967;51.756;10.174;2023-05-19T19:57:31;100532.56;;;13.85;56.83
62011;BME280;47967;51.756;10.174;2023-05-19T20:01:34;100543.13;;;13.73;57.63
62011;BME280;47967;51.756;10.174;2023-05-19T20:05:38;100538.88;;;13.57;58.11
62011;BME280;47967;51.756;10.174;2023-05-19T20:09:41;100545.75;;;13.53;58.30
62011;BME280;47967;51.756;10.174;2023-05-19T20:13:43;100550.03;;;13.12;59.49
62011;BME280;47967;51.756;10.174;2023-05-19T20:17:46;100542.22;;;12.95;60.23
62011;BME280;47967;51.756;10.174;2023-05-19T20:21:50;100545.63;;;13.04;60.22
62011;BME280;47967;51.756;10.174;2023-05-19T20:25:53;100541.09;;;13.11;59.62
62011;BME280;47967;51.756;10.174;2023-05-19T20:30:12;100542.16;;;12.89;60.71
62011;BME280;47967;51.756;10.174;2023-05-19T20:34:15;100539.88;;;12.42;62.90
62011;BME280;47967;51.756;10.174;2023-05-19T20:38:19;100541.97;;;12.40;63.54
62011;BME280;47967;51.756;10.174;2023-05-19T20:42:21;100551.66;;;12.13;63.40
62011;BME280;47967;51.756;10.174;2023-05-19T20:46:24;100549.81;;;11.98;63.79
62011;BME280;47967;51.756;10.174;2023-05-19T20:50:26;100562.31;;;11.99;63.97
62011;BME280;47967;51.756;10.174;2023-05-19T20:54:30;100561.00;;;11.95;64.45
62011;BME280;47967;51.756;10.174;2023-05-19T20:58:33;100561.81;;;11.96;64.51
